Time;durP1;ratioP1;P1;durP2;ratioP2;P2;SDS_P1;SDS_P2;PMS_P1;PMS_P2;Temp;Humidity;BMP_temperature;BMP_pressure;BME280_temperature;BME280_humidity;BME280_pressure;Samples;Min_cycle;Max_cycle;Signal;HPM_P1;HPM_P2
2022/11/06 00:02:07;;;;;;;63.92;60.35;;;;;;;14.63;67.92;101743.66;4940321;28;102254;-53
2022/11/06 00:04:34;;;;;;;65.57;61.92;;;;;;;14.63;67.89;101751.88;4941846;28;102201;-53
2022/11/06 00:07:00;;;;;;;63.13;59.80;;;;;;;14.62;66.84;101743.94;4953904;28;102175;-53
2022/11/06 00:09:28;;;;;;;70.75;67.05;;;;;;;14.65;68.49;101751.63;4956870;28;104123;-52
2022/11/06 00:11:56;;;;;;;62.95;59.55;;;;;;;14.68;67.71;101750.25;4959219;28;102340;-53
2022/11/06 00:14:24;;;;;;;65.53;62.03;;;;;;;14.68;67.96;101750.25;4960017;28;102581;-52
2022/11/06 00:16:53;;;;;;;67.75;64.22;;;;;;;14.68;68.54;101759.31;4968052;28;103388;-53
2022/11/06 00:19:20;;;;;;;67.38;63.90;;;;;;;14.65;66.77;101754.38;4947761;28;103864;-53
2022/11/06 00:21:47;;;;;;;64.20;60.85;;;;;;;14.64;67.36;101753.56;4962270;28;102163;-53
2022/11/06 00:24:14;;;;;;;63.10;59.75;;;;;;;14.66;67.96;101743.13;4961292;28;102470;-53
2022/11/06 00:26:41;;;;;;;64.70;61.35;;;;;;;14.68;68.38;101745.59;4965978;28;102240;-53
2022/11/06 00:29:12;;;;;;;61.55;58.33;;;;;;;14.65;67.48;101751.63;4960385;28;103997;-52
2022/11/06 00:31:41;;;;;;;62.85;59.58;;;;;;;14.62;66.89;101747.50;4958701;28;102006;-52
2022/11/06 00:34:09;;;;;;;64.53;61.03;;;;;;;14.64;68.30;101745.34;4964908;28;102295;-53
2022/11/06 00:36:37;;;;;;;65.25;61.88;;;;;;;14.63;68.07;101749.16;4965195;28;102430;-53
2022/11/06 00:39:04;;;;;;;60.75;57.60;;;;;;;14.62;67.06;101747.50;4960741;28;104162;-53
2022/11/06 00:41:31;;;;;;;60.85;57.67;;;;;;;14.60;66.57;101746.13;4962536;28;102536;-53
2022/11/06 00:44:00;;;;;;;59.75;56.50;;;;;;;14.58;65.61;101751.91;4958739;28;102023;-53
2022/11/06 00:46:27;;;;;;;62.05;58.67;;;;;;;14.59;66.85;101748.06;4967880;28;102444;-53
2022/11/06 00:48:55;;;;;;;53.58;50.75;;;;;;;14.60;67.33;101746.13;4961004;28;104073;-53
2022/11/06 00:51:23;;;;;;;58.03;54.93;;;;;;;14.61;67.54;101751.34;4959416;28;103144;-53
2022/11/06 00:53:54;;;;;;;60.22;56.92;;;;;;;14.63;67.57;101743.66;4940843;28;102533;-53
2022/11/06 00:56:21;;;;;;;54.08;51.17;;;;;;;14.62;67.39;101736.56;4952569;28;102416;-53
2022/11/06 00:58:47;;;;;;;58.13;55.05;;;;;;;14.61;66.67;101732.19;4961408;28;104180;-53
2022/11/06 01:01:15;;;;;;;60.78;57.58;;;;;;;14.62;67.73;101728.34;4954107;28;102302;-53
2022/11/06 01:03:43;;;;;;;56.97;53.78;;;;;;;14.64;67.69;101728.91;4941112;28;102227;-53
2022/11/06 01:06:13;;;;;;;58.87;55.73;;;;;;;14.62;67.27;101731.06;4945300;28;102449;-52
2022/11/06 01:08:40;;;;;;;54.15;51.30;;;;;;;14.60;67.65;101727.78;4944686;28;103980;-53
2022/11/06 01:11:08;;;;;;;54.15;51.13;;;;;;;14.63;67.70;101726.41;4961745;28;102085;-53
2022/11/06 01:13:37;;;;;;;59.25;56.15;;;;;;;14.64;67.58;101733.53;4938489;28;102310;-53
2022/11/06 01:16:06;;;;;;;60.72;57.55;;;;;;;14.62;66.69;101725.59;4946088;28;102579;-52
2022/11/06 01:18:33;;;;;;;57.33;54.33;;;;;;;14.62;67.53;101733.81;4941745;28;103890;-53
2022/11/06 01:21:03;;;;;;;67.43;63.78;;;;;;;14.63;67.69;101726.41;4956084;28;102316;-52
2022/11/06 01:23:31;;;;;;;59.65;56.53;;;;;;;14.62;66.92;101725.59;4950750;28;102852;-52
2022/11/06 01:25:59;;;;;;;60.83;57.42;;;;;;;14.61;67.06;101723.97;4947503;28;102166;-53
2022/11/06 01:28:26;;;;;;;64.25;60.92;;;;;;;14.60;67.51;101733.25;4954426;28;104149;-53
2022/11/06 01:31:00;;;;;;;61.97;58.67;;;;;;;14.61;67.92;101731.34;4953639;28;102289;-52
2022/11/06 01:33:27;;;;;;;64.80;61.45;;;;;;;14.60;67.85;101733.25;4958458;28;102570;-53
2022/11/06 01:35:54;;;;;;;65.68;62.10;;;;;;;14.58;67.69;101729.97;4954068;28;102335;-53
2022/11/06 01:38:20;;;;;;;64.75;61.38;;;;;;;14.59;67.26;101726.13;4946026;28;104155;-53
2022/11/06 01:40:48;;;;;;;62.53;59.22;;;;;;;14.57;66.85;101728.34;4962761;28;102359;-53
2022/11/06 01:43:20;;;;;;;60.08;56.95;;;;;;;14.57;67.25;101731.09;4954665;28;102330;-53
2022/11/06 01:45:48;;;;;;;60.90;57.67;;;;;;;14.56;66.51;101725.84;4944098;28;102043;-52
2022/11/06 01:48:17;;;;;;;63.70;60.30;;;;;;;14.55;67.06;101727.78;4946735;28;104123;-53
2022/11/06 01:50:47;;;;;;;67.50;63.70;;;;;;;14.57;67.00;101731.09;4959148;28;102577;-53
2022/11/06 01:53:14;;;;;;;66.97;63.33;;;;;;;14.56;66.87;101726.69;4958138;28;102191;-53
2022/11/06 01:55:44;;;;;;;58.83;55.72;;;;;;;14.57;68.02;101728.34;4951968;28;102172;-53
2022/11/06 01:58:16;;;;;;;60.88;57.63;;;;;;;14.56;67.05;101726.69;4952615;28;104113;-53
2022/11/06 02:00:44;;;;;;;63.33;59.92;;;;;;;14.56;66.58;101732.16;4943890;28;102859;-53
2022/11/06 02:03:14;;;;;;;64.53;60.83;;;;;;;14.56;67.33;101732.16;4943614;28;102548;-53
2022/11/06 02:05:41;;;;;;;63.15;59.85;;;;;;;14.58;68.05;101729.97;4940712;28;102396;-53
2022/11/06 02:08:11;;;;;;;59.75;56.55;;;;;;;14.58;67.28;101729.97;4943485;28;104255;-53
2022/11/06 02:10:40;;;;;;;57.53;54.40;;;;;;;14.59;67.34;101730.78;4946181;28;102429;-53
2022/11/06 02:13:20;;;;;;;61.70;58.47;;;;;;;14.56;67.15;101726.69;4940675;28;102518;-53
2022/11/06 02:15:51;;;;;;;56.97;53.95;;;;;;;14.56;67.40;101723.13;4941788;28;102388;-53
2022/11/06 02:18:41;;;;;;;58.45;55.28;;;;;;;14.55;66.95;101724.22;4941442;28;104579;-52
2022/11/06 02:21:38;;;;;;;60.13;56.83;;;;;;;14.56;67.38;101726.69;4943117;28;102784;-53
2022/11/06 02:24:24;;;;;;;57.05;53.90;;;;;;;14.56;67.94;101720.38;4952292;28;102099;-53
2022/11/06 02:27:02;;;;;;;57.58;54.45;;;;;;;14.55;67.26;101716.00;4948270;28;102600;-53
2022/11/06 02:29:33;;;;;;;55.10;51.92;;;;;;;14.54;67.17;101720.66;4934734;28;103996;-53
2022/11/06 02:32:05;;;;;;;59.33;56.08;;;;;;;14.54;67.05;101723.41;4944739;28;102537;-53
2022/11/06 02:34:35;;;;;;;57.85;54.72;;;;;;;14.55;67.91;101725.03;4951582;28;102449;-53
2022/11/06 02:37:07;;;;;;;58.35;55.22;;;;;;;14.55;67.46;101725.03;4955734;28;102240;-53
2022/11/06 02:39:38;;;;;;;57.55;54.35;;;;;;;14.55;68.37;101725.03;4947627;28;103921;-53
2022/11/06 02:42:07;;;;;;;53.60;50.67;;;;;;;14.54;67.18;101728.06;4948022;28;102654;-53
2022/11/06 02:44:37;;;;;;;51.42;48.58;;;;;;;14.55;67.22;101735.19;4949591;28;102178;-53
2022/11/06 02:47:08;;;;;;;57.25;54.17;;;;;;;14.55;66.95;101738.75;4958460;28;102428;-53
2022/11/06 02:49:40;;;;;;;55.85;52.90;;;;;;;14.53;67.79;101749.13;4950833;28;103921;-53
2022/11/06 02:52:12;;;;;;;56.95;53.83;;;;;;;14.56;68.24;101745.84;4948669;28;103415;-53
2022/11/06 02:54:45;;;;;;;59.42;56.13;;;;;;;14.58;67.96;101751.91;4946801;28;102398;-53
2022/11/06 02:57:16;;;;;;;64.97;61.42;;;;;;;14.56;68.31;101748.59;4955253;28;102616;-53
2022/11/06 02:59:50;;;;;;;60.55;57.25;;;;;;;14.56;67.73;101747.78;4945517;28;103856;-53
2022/11/06 03:02:20;;;;;;;62.42;58.88;;;;;;;14.53;66.90;101751.88;4951210;28;102318;-53
2022/11/06 03:04:52;;;;;;;67.20;63.30;;;;;;;14.55;67.65;101757.09;4949985;28;102185;-53
2022/11/06 03:07:27;;;;;;;61.65;58.30;;;;;;;14.53;67.40;101754.63;4950788;28;102623;-53
2022/11/06 03:09:54;;;;;;;70.65;66.95;;;;;;;14.53;67.81;101765.56;4950411;28;104043;-53
2022/11/06 03:12:29;;;;;;;60.20;56.80;;;;;;;14.53;67.88;101754.63;4951651;28;102356;-53
2022/11/06 03:15:04;;;;;;;66.60;62.92;;;;;;;14.54;67.96;101749.97;4947057;28;102422;-53
2022/11/06 03:17:40;;;;;;;63.10;59.60;;;;;;;14.54;67.69;101761.75;4962268;28;102215;-53
2022/11/06 03:20:19;;;;;;;64.45;60.92;;;;;;;14.55;67.60;101751.63;4940887;28;104006;-53
2022/11/06 03:22:53;;;;;;;65.85;62.22;;;;;;;14.57;68.23;101754.88;4945174;28;103335;-53
2022/11/06 03:25:22;;;;;;;64.65;61.15;;;;;;;14.56;67.89;101765.03;4953302;28;102012;-53
2022/11/06 03:28:01;;;;;;;63.42;59.92;;;;;;;14.55;67.66;101766.13;4942221;28;102196;-53
2022/11/06 03:30:30;;;;;;;63.72;60.33;;;;;;;14.52;68.36;101774.88;4936090;28;104100;-53
2022/11/06 03:33:03;;;;;;;64.22;60.63;;;;;;;14.52;67.99;101774.06;4943083;28;101894;-53
2022/11/06 03:35:34;;;;;;;65.65;62.10;;;;;;;14.54;68.27;101772.72;4951208;28;102207;-53
2022/11/06 03:38:06;;;;;;;65.13;61.55;;;;;;;14.53;68.11;101771.03;4957387;28;102308;-53
2022/11/06 03:40:39;;;;;;;61.63;58.22;;;;;;;14.55;68.42;101779.81;4957792;28;104329;-53
2022/11/06 03:43:09;;;;;;;59.83;56.53;;;;;;;14.54;68.50;101780.94;4956272;28;102470;-52
2022/11/06 03:45:39;;;;;;;65.28;61.63;;;;;;;14.55;68.26;101776.28;4961205;28;102231;-53
2022/11/06 03:48:10;;;;;;;63.50;59.92;;;;;;;14.52;68.01;101780.38;4951336;28;102382;-53
2022/11/06 03:50:43;;;;;;;67.80;64.18;;;;;;;14.51;68.08;101773.25;4960846;28;104317;-53
2022/11/06 03:53:14;;;;;;;67.05;63.35;;;;;;;14.54;68.57;101771.91;4952367;28;102219;-53
2022/11/06 03:55:46;;;;;;;61.17;57.80;;;;;;;14.52;68.27;101772.16;4940555;28;102231;-52
2022/11/06 03:58:18;;;;;;;67.00;63.28;;;;;;;14.50;67.54;101782.56;4965644;28;103760;-53
2022/11/06 04:00:45;;;;;;;63.60;60.03;;;;;;;14.53;68.12;101781.19;4954104;28;103955;-53
2022/11/06 04:03:19;;;;;;;64.03;60.58;;;;;;;14.51;67.92;101781.47;4955343;28;102434;-53
2022/11/06 04:05:51;;;;;;;69.43;65.70;;;;;;;14.52;68.73;101791.31;4956017;28;102226;-53
2022/11/06 04:13:59;;;;;;;68.57;64.70;;;;;;;14.48;67.72;101779.25;4954766;28;102053;-53
2022/11/06 04:16:30;;;;;;;66.38;62.72;;;;;;;14.51;68.55;101784.22;4961909;28;103560;-54
2022/11/06 04:18:59;;;;;;;69.35;65.55;;;;;;;14.54;68.43;101778.19;4948168;28;102538;-53
2022/11/06 04:21:38;;;;;;;64.50;60.88;;;;;;;14.54;67.92;101796.56;4949163;28;103851;-53
2022/11/06 04:27:14;;;;;;;73.40;69.35;;;;;;;14.51;68.50;101806.13;4941010;28;102014;-53
2022/11/06 04:29:54;;;;;;;71.97;68.05;;;;;;;14.53;68.93;101798.44;4939504;28;102416;-53
2022/11/06 04:32:32;;;;;;;70.35;66.45;;;;;;;14.53;68.51;101803.91;4949577;28;103799;-53
2022/11/06 04:35:04;;;;;;;77.28;72.97;;;;;;;14.53;68.54;101814.88;4951716;28;102410;-53
2022/11/06 04:37:39;;;;;;;72.10;68.20;;;;;;;14.52;68.23;101812.41;4966443;28;102376;-53
2022/11/06 04:40:10;;;;;;;68.80;65.00;;;;;;;14.51;68.10;101816.25;4946452;28;102058;-53
2022/11/06 04:42:47;;;;;;;70.40;66.50;;;;;;;14.50;68.45;101815.44;4958024;28;103944;-53
2022/11/06 04:45:22;;;;;;;70.03;66.22;;;;;;;14.49;68.05;101808.25;4958033;28;102353;-53
2022/11/06 04:47:51;;;;;;;70.85;66.75;;;;;;;14.50;68.69;101823.66;4953821;28;102657;-53
2022/11/06 04:50:21;;;;;;;65.77;62.07;;;;;;;14.48;68.05;101825.81;4963183;28;102387;-53
2022/11/06 04:52:48;;;;;;;66.50;62.78;;;;;;;14.49;68.62;101830.19;4963130;28;104000;-54
2022/11/06 04:55:15;;;;;;;69.32;65.50;;;;;;;14.50;68.76;101826.41;4956732;28;102437;-53
2022/11/06 04:57:41;;;;;;;63.65;60.05;;;;;;;14.51;68.87;101821.75;4951491;28;102269;-53
2022/11/06 05:00:12;;;;;;;65.53;61.67;;;;;;;14.52;68.69;101829.69;4952052;28;102527;-53
2022/11/06 05:02:40;;;;;;;66.50;62.83;;;;;;;14.50;68.33;101837.34;4962419;28;104307;-53
2022/11/06 05:05:07;;;;;;;68.40;64.67;;;;;;;14.51;69.23;101841.72;4957263;28;102165;-53
2022/11/06 05:07:33;;;;;;;63.67;60.08;;;;;;;14.48;68.33;101842.25;4949479;28;102539;-53
2022/11/06 05:10:02;;;;;;;67.22;63.38;;;;;;;14.48;68.19;101846.91;4957315;28;102404;-53
2022/11/06 05:12:30;;;;;;;68.63;64.75;;;;;;;14.51;68.97;101843.66;4959722;28;103892;-53
2022/11/06 05:14:57;;;;;;;71.00;66.97;;;;;;;14.51;68.96;101844.47;4960353;28;102688;-53
2022/11/06 05:17:23;;;;;;;70.75;66.70;;;;;;;14.53;68.94;101846.94;4960377;28;102034;-53
2022/11/06 05:19:53;;;;;;;68.90;65.00;;;;;;;14.53;68.77;101858.69;4946301;28;102447;-53
2022/11/06 05:25:06;;;;;;;68.63;64.70;;;;;;;14.55;69.26;101858.44;4952285;28;102824;-53
2022/11/06 05:27:33;;;;;;;70.47;66.55;;;;;;;14.57;68.81;101865.31;4945014;28;102170;-53
2022/11/06 05:29:59;;;;;;;68.45;64.38;;;;;;;14.55;68.73;101862.00;4946967;28;102363;-53
2022/11/06 05:32:26;;;;;;;64.03;60.25;;;;;;;14.52;68.59;101868.03;4948771;28;103902;-53
2022/11/06 05:34:53;;;;;;;68.10;64.10;;;;;;;14.52;68.02;101867.19;4964883;28;102740;-53
2022/11/06 05:37:20;;;;;;;74.15;69.85;;;;;;;14.51;69.00;101866.38;4963586;28;102367;-53
2022/11/06 05:39:46;;;;;;;70.13;66.22;;;;;;;14.49;68.09;101868.53;4955091;28;102234;-53
2022/11/06 05:42:13;;;;;;;70.07;66.10;;;;;;;14.47;68.01;101865.25;4961241;28;104143;-53
2022/11/06 05:44:40;;;;;;;74.03;69.82;;;;;;;14.49;68.61;101873.19;4959151;28;102199;-53
2022/11/06 05:47:07;;;;;;;67.90;63.83;;;;;;;14.48;68.65;101871.56;4962090;28;102101;-53
2022/11/06 05:49:35;;;;;;;;;;;;;;;14.50;69.17;101883.91;4950004;28;102303;-53
2022/11/06 05:52:03;;;;;;;93.25;88.03;;;;;;;14.51;69.06;101885.56;4959309;28;104399;-52
2022/11/06 05:54:30;;;;;;;85.53;80.47;;;;;;;14.53;68.88;101886.09;4967353;28;102194;-53
2022/11/06 05:56:57;;;;;;;77.10;72.70;;;;;;;14.54;68.97;101890.50;4954252;28;102022;-53
2022/11/06 05:59:23;;;;;;;80.70;76.22;;;;;;;14.54;69.40;101887.75;4951764;28;102505;-53
2022/11/06 06:01:50;;;;;;;68.43;64.38;;;;;;;14.54;69.04;101887.75;4945114;28;104366;-52
2022/11/06 06:04:16;;;;;;;71.50;67.50;;;;;;;14.53;69.42;101897.06;4947171;28;102535;-53
2022/11/06 06:06:43;;;;;;;70.07;66.05;;;;;;;14.50;68.47;101892.13;4949503;28;102611;-53
2022/11/06 06:09:12;;;;;;;74.90;70.60;;;;;;;14.51;69.43;101890.22;4953400;28;102440;-52
2022/11/06 06:11:40;;;;;;;77.18;72.68;;;;;;;14.55;69.24;101900.38;4953219;28;103881;-53
2022/11/06 06:14:08;;;;;;;76.68;72.13;;;;;;;14.53;68.86;101888.84;4957311;28;102047;-53
2022/11/06 06:16:35;;;;;;;72.93;68.70;;;;;;;14.54;68.85;101895.97;4958294;28;102072;-53
2022/11/06 06:19:02;;;;;;;78.43;73.65;;;;;;;14.52;68.94;101895.41;4956757;28;102605;-53
2022/11/06 06:21:28;;;;;;;72.07;67.82;;;;;;;14.54;69.21;101900.66;4936597;28;104219;-53
2022/11/06 06:23:55;;;;;;;75.95;71.63;;;;;;;14.52;69.33;101909.09;4936954;28;101995;-53
2022/11/06 06:26:23;;;;;;;74.47;70.05;;;;;;;14.50;68.54;101903.09;4936980;28;101950;-53
2022/11/06 06:28:49;;;;;;;68.60;64.35;;;;;;;14.51;69.38;101910.22;4943682;28;102177;-54
2022/11/06 06:31:16;;;;;;;78.22;73.22;;;;;;;14.51;68.88;101912.94;4957916;28;104330;-53
2022/11/06 06:33:43;;;;;;;75.55;71.10;;;;;;;14.50;68.90;101914.06;4942161;28;102514;-53
2022/11/06 06:36:09;;;;;;;75.20;70.75;;;;;;;14.51;69.29;101910.22;4954524;28;102666;-53
2022/11/06 06:38:36;;;;;;;72.63;68.35;;;;;;;14.50;69.09;101914.06;4955317;28;102633;-53
2022/11/06 06:41:05;;;;;;;73.55;69.13;;;;;;;14.51;69.57;101918.44;4951174;28;103927;-52
2022/11/06 06:43:34;;;;;;;79.93;75.20;;;;;;;14.51;68.55;101915.69;4957758;28;102302;-53
2022/11/06 06:46:02;;;;;;;76.13;71.88;;;;;;;14.50;68.50;101924.19;4941560;28;102636;-52
2022/11/06 06:48:29;;;;;;;78.88;74.35;;;;;;;14.50;68.74;101927.75;4952567;28;102549;-53
2022/11/06 06:50:56;;;;;;;77.75;73.25;;;;;;;14.50;69.09;101925.00;4958274;28;103907;-53
2022/11/06 06:53:23;;;;;;;83.25;78.45;;;;;;;14.50;68.84;101925.00;4952961;28;102411;-53
2022/11/06 06:55:50;;;;;;;80.18;75.57;;;;;;;14.50;68.62;101916.78;4952089;28;102312;-53
2022/11/06 06:58:16;;;;;;;72.82;68.40;;;;;;;14.51;69.04;101921.16;4951759;28;102830;-56
2022/11/06 07:00:44;;;;;;;69.05;64.85;;;;;;;14.54;68.83;101930.78;4961818;28;104314;-53
2022/11/06 07:03:11;;;;;;;71.63;67.47;;;;;;;14.52;69.28;101922.00;4952244;28;102403;-53
2022/11/06 07:05:38;;;;;;;70.50;66.28;;;;;;;14.52;69.58;101922.00;4949596;28;102493;-53
2022/11/06 07:08:05;;;;;;;70.75;66.75;;;;;;;14.54;69.17;101931.59;4950179;28;102122;-53
2022/11/06 07:10:32;;;;;;;79.22;74.60;;;;;;;14.53;69.15;101920.88;4952496;28;104283;-53
2022/11/06 07:13:00;;;;;;;78.25;73.82;;;;;;;14.52;69.20;101928.28;4939393;28;102369;-53
2022/11/06 07:15:26;;;;;;;78.80;74.10;;;;;;;14.53;69.18;101929.94;4938027;28;102430;-53
2022/11/06 07:17:59;;;;;;;77.10;72.57;;;;;;;14.53;69.15;101926.38;4956400;28;102926;-53
2022/11/06 07:20:26;;;;;;;77.60;73.10;;;;;;;14.54;69.41;101926.13;4947018;28;104022;-53
2022/11/06 07:22:53;;;;;;;73.03;68.72;;;;;;;14.55;69.66;101933.22;4935372;28;102568;-53
2022/11/06 07:25:20;;;;;;;72.45;68.18;;;;;;;14.56;69.30;101928.56;4937377;28;102108;-53
2022/11/06 07:27:48;;;;;;;74.53;70.13;;;;;;;14.57;68.88;101920.09;4946251;28;103748;-54
2022/11/06 07:30:14;;;;;;;75.22;70.80;;;;;;;14.57;69.19;101922.84;4957584;28;103935;-53
2022/11/06 07:32:42;;;;;;;72.93;68.70;;;;;;;14.54;69.25;101915.16;4957110;28;102596;-53
2022/11/06 07:35:10;;;;;;;69.10;65.00;;;;;;;14.51;69.27;101918.44;4960510;28;102194;-53
2022/11/06 07:37:37;;;;;;;81.43;76.80;;;;;;;14.51;68.74;101921.16;4955616;28;102268;-53
2022/11/06 07:40:05;;;;;;;77.28;72.78;;;;;;;14.52;69.52;101928.28;4958816;28;104131;-53
2022/11/06 07:42:31;;;;;;;77.40;72.80;;;;;;;14.51;68.88;101921.16;4960960;28;102214;-53
2022/11/06 07:44:58;;;;;;;76.80;72.20;;;;;;;14.54;69.30;101920.63;4957198;28;102038;-53
2022/11/06 07:47:26;;;;;;;76.30;71.80;;;;;;;14.51;69.16;101920.34;4952637;28;102347;-53
2022/11/06 07:49:52;;;;;;;68.40;64.43;;;;;;;14.51;69.49;101926.66;4945969;28;103977;-53
2022/11/06 07:52:20;;;;;;;76.43;72.07;;;;;;;14.51;69.26;101926.66;4952138;28;102333;-53
2022/11/06 07:54:47;;;;;;;71.05;66.78;;;;;;;14.50;68.80;101922.28;4947755;28;101879;-53
2022/11/06 07:57:14;;;;;;;71.00;66.70;;;;;;;14.54;68.92;101919.81;4951322;28;102883;-53
2022/11/06 07:59:41;;;;;;;72.28;67.97;;;;;;;14.57;69.05;101930.22;4952908;28;104348;-53
2022/11/06 08:02:10;;;;;;;77.95;73.35;;;;;;;14.56;69.51;101928.56;4952272;28;102078;-53
2022/11/06 08:04:36;;;;;;;73.70;69.38;;;;;;;14.54;69.40;101926.13;4950214;28;102698;-53
2022/11/06 08:07:03;;;;;;;69.97;65.80;;;;;;;14.53;69.29;101931.84;4953218;28;102402;-53
2022/11/06 08:09:31;;;;;;;77.22;72.63;;;;;;;14.52;69.20;101933.75;4951718;28;104104;-53
2022/11/06 08:11:57;;;;;;;74.47;70.03;;;;;;;14.52;68.93;101932.94;4938504;28;102025;-53
2022/11/06 08:14:24;;;;;;;73.40;68.75;;;;;;;14.51;68.95;101939.53;4938829;28;102421;-53
2022/11/06 08:16:52;;;;;;;72.47;68.10;;;;;;;14.48;68.56;101940.84;4955958;28;102383;-53
2022/11/06 08:19:18;;;;;;;80.18;75.70;;;;;;;14.49;69.28;101945.22;4941696;28;104113;-53
2022/11/06 08:21:45;;;;;;;75.97;71.38;;;;;;;14.54;69.40;101942.56;4940614;28;102921;-53
2022/11/06 08:24:12;;;;;;;76.03;71.43;;;;;;;14.53;69.71;101946.38;4956859;28;102391;-53
2022/11/06 08:26:39;;;;;;;72.18;67.93;;;;;;;14.50;69.00;101944.19;4957797;28;102229;-53
2022/11/06 08:29:06;;;;;;;72.03;67.67;;;;;;;14.49;69.46;101945.22;4944725;28;103494;-53
2022/11/06 08:31:33;;;;;;;73.65;69.25;;;;;;;14.52;69.29;101950.19;4937645;28;102748;-52
2022/11/06 08:33:59;;;;;;;73.10;68.65;;;;;;;14.53;69.26;101957.31;4946917;28;102530;-53
2022/11/06 08:36:26;;;;;;;73.85;69.43;;;;;;;14.50;69.21;101955.13;4944910;28;102754;-53
2022/11/06 08:38:53;;;;;;;69.22;65.13;;;;;;;14.49;68.99;101956.19;4954453;28;104087;-53
2022/11/06 08:41:19;;;;;;;74.55;70.13;;;;;;;14.48;68.87;101951.81;4944203;28;102276;-53
2022/11/06 08:43:50;;;;;;;71.38;67.03;;;;;;;14.50;68.84;101952.41;4938845;28;102411;-53
2022/11/06 08:46:16;;;;;;;86.13;81.20;;;;;;;14.52;69.55;101950.19;4952217;28;102490;-53
2022/11/06 08:48:43;;;;;;;77.95;73.30;;;;;;;14.53;69.76;101957.31;4940997;28;104063;-53
2022/11/06 08:51:09;;;;;;;77.35;72.90;;;;;;;14.54;69.64;101956.25;4941005;28;102143;-53
2022/11/06 08:53:37;;;;;;;74.75;70.25;;;;;;;14.55;69.83;101949.66;4953032;28;102865;-53
2022/11/06 08:56:04;;;;;;;76.45;71.93;;;;;;;14.54;69.66;101952.69;4957993;28;102810;-53
2022/11/06 08:58:31;;;;;;;76.05;71.45;;;;;;;14.54;69.83;101952.69;4952393;28;103693;-54
2022/11/06 09:00:58;;;;;;;72.97;68.40;;;;;;;14.55;69.56;101959.81;4951411;28;102428;-53
2022/11/06 09:03:25;;;;;;;77.45;72.78;;;;;;;14.55;69.42;101960.63;4938496;28;102583;-53
2022/11/06 09:05:51;;;;;;;73.50;68.93;;;;;;;14.52;69.64;101952.94;4948970;28;102171;-53
2022/11/06 09:08:18;;;;;;;74.63;70.05;;;;;;;14.52;69.85;101950.19;4937579;28;104082;-53
2022/11/06 09:10:45;;;;;;;73.68;69.13;;;;;;;14.53;69.78;101956.50;4937895;28;102640;-53
2022/11/06 09:13:11;;;;;;;79.95;75.25;;;;;;;14.54;69.43;101948.03;4948960;28;102551;-53
2022/11/06 09:15:38;;;;;;;75.28;70.80;;;;;;;14.53;69.58;101946.38;4960791;28;102491;-53
2022/11/06 09:18:07;;;;;;;73.60;69.28;;;;;;;14.53;69.64;101956.50;4945963;28;104088;-53
2022/11/06 09:20:34;;;;;;;73.05;68.72;;;;;;;14.50;69.24;101949.66;4954474;28;102426;-53
2022/11/06 09:23:03;;;;;;;74.32;69.93;;;;;;;14.51;69.56;101951.31;4940473;28;102222;-53
2022/11/06 09:25:30;;;;;;;78.53;73.87;;;;;;;14.52;69.59;101950.19;4950543;28;102360;-53
2022/11/06 09:27:57;;;;;;;80.47;75.72;;;;;;;14.52;69.17;101955.69;4949936;28;104155;-53
2022/11/06 09:30:24;;;;;;;81.80;76.93;;;;;;;14.51;69.69;101954.03;4949640;28;102206;-53
2022/11/06 09:32:56;;;;;;;78.18;73.32;;;;;;;14.52;69.66;101947.47;4939663;28;102295;-53
2022/11/06 09:35:26;;;;;;;75.18;70.45;;;;;;;14.53;69.39;101951.03;4954286;28;102364;-53
2022/11/06 09:37:53;;;;;;;81.40;76.38;;;;;;;14.53;69.69;101946.38;4951235;28;108107;-53
2022/11/06 09:40:25;;;;;;;80.45;75.47;;;;;;;14.53;69.47;101940.88;4947730;28;102589;-53
2022/11/06 09:43:01;;;;;;;79.88;74.88;;;;;;;14.56;69.73;101951.31;4945051;28;102620;-53
2022/11/06 09:45:31;;;;;;;80.18;75.35;;;;;;;14.58;69.92;101959.28;4953802;28;102240;-53
2022/11/06 09:48:04;;;;;;;77.22;72.22;;;;;;;14.61;69.65;101945.03;4941191;28;103882;-53
2022/11/06 09:50:36;;;;;;;74.07;69.60;;;;;;;14.58;69.67;101954.63;4952508;28;102657;-53
2022/11/06 09:53:10;;;;;;;75.28;70.63;;;;;;;14.56;69.80;101956.78;4945109;28;102334;-54
2022/11/06 09:55:39;;;;;;;73.40;68.93;;;;;;;14.58;69.73;101951.88;4953620;28;102475;-53
2022/11/06 09:58:12;;;;;;;75.30;70.75;;;;;;;14.55;69.41;101957.88;4938540;28;103860;-52
2022/11/06 10:00:39;;;;;;;74.60;70.18;;;;;;;14.55;69.81;101944.19;4944676;28;102551;-53
2022/11/06 10:03:15;;;;;;;74.30;69.90;;;;;;;14.55;69.92;101949.66;4939636;28;102115;-53
2022/11/06 10:05:45;;;;;;;76.22;71.63;;;;;;;14.54;69.74;101948.03;4942519;28;102286;-53
2022/11/06 10:08:16;;;;;;;72.32;67.93;;;;;;;14.56;69.89;101945.00;4940145;28;103775;-53
2022/11/06 10:10:49;;;;;;;76.95;72.50;;;;;;;14.55;69.23;101944.19;4939560;28;102093;-53
2022/11/06 10:13:33;;;;;;;75.57;71.05;;;;;;;14.52;69.22;101936.50;4941910;28;103674;-52
2022/11/06 10:16:09;;;;;;;81.43;76.68;;;;;;;14.54;69.81;101937.06;4943481;28;102423;-53
2022/11/06 10:18:46;;;;;;;79.68;75.13;;;;;;;14.53;69.30;101931.84;4937960;28;103940;-52
2022/11/06 10:21:22;;;;;;;75.80;71.25;;;;;;;14.53;69.73;101934.59;4940101;28;102782;-53
2022/11/06 10:23:53;;;;;;;79.45;74.57;;;;;;;14.51;68.89;101929.38;4938361;28;102406;-53
2022/11/06 10:26:26;;;;;;;74.78;70.30;;;;;;;14.52;69.69;101928.28;4941177;28;102360;-53
2022/11/06 10:29:19;;;;;;;82.03;77.15;;;;;;;14.54;69.56;101923.38;4938613;28;104049;-53
2022/11/06 10:31:57;;;;;;;80.75;76.03;;;;;;;14.54;69.41;101915.16;4941609;28;102991;-53
2022/11/06 10:34:30;;;;;;;75.97;71.50;;;;;;;14.53;69.22;101924.44;4939084;28;102649;-53
2022/11/06 10:37:04;;;;;;;74.05;69.65;;;;;;;14.56;69.63;101921.16;4942450;28;102506;-53
2022/11/06 10:39:33;;;;;;;75.43;70.85;;;;;;;14.54;68.97;101920.63;4939064;28;104040;-53
2022/11/06 10:42:05;;;;;;;83.40;78.40;;;;;;;14.56;69.21;101923.09;4938527;28;102096;-53
2022/11/06 10:44:36;;;;;;;78.78;74.15;;;;;;;14.53;69.90;101918.97;4940044;28;102163;-53
2022/11/06 10:47:10;;;;;;;78.57;73.85;;;;;;;14.54;69.39;101915.16;4940431;28;102219;-53
2022/11/06 10:49:43;;;;;;;73.60;69.18;;;;;;;14.53;69.00;101910.75;4938262;28;104382;-53
2022/11/06 10:52:26;;;;;;;76.93;72.32;;;;;;;14.53;69.93;101902.53;4938943;28;102158;-53
2022/11/06 10:55:08;;;;;;;78.28;73.65;;;;;;;14.53;69.42;101899.78;4939690;28;102195;-53
2022/11/06 10:57:42;;;;;;;75.20;70.57;;;;;;;14.52;69.12;101900.91;4944602;28;102250;-53
2022/11/06 11:00:11;;;;;;;73.80;69.40;;;;;;;14.57;69.58;101908.28;4939139;28;108243;-53
2022/11/06 11:02:42;;;;;;;71.38;67.20;;;;;;;14.55;69.75;101903.09;4942268;28;103104;-52
2022/11/06 11:05:14;;;;;;;73.93;69.53;;;;;;;14.57;69.26;101891.84;4940776;28;102608;-53
2022/11/06 11:07:44;;;;;;;73.95;69.57;;;;;;;14.58;69.46;101904.50;4941509;28;102824;-53
2022/11/06 11:10:27;;;;;;;74.30;69.82;;;;;;;14.57;69.67;101897.34;4938857;28;103720;-53
2022/11/06 11:12:55;;;;;;;73.45;69.13;;;;;;;14.58;69.42;101905.31;4949820;28;102700;-53
2022/11/06 11:15:23;;;;;;;68.88;64.70;;;;;;;14.58;69.54;101902.56;4953739;28;102606;-53
2022/11/06 11:18:13;;;;;;;76.88;72.40;;;;;;;14.60;69.79;101907.75;4955406;28;102148;-53
2022/11/06 11:20:42;;;;;;;71.60;67.32;;;;;;;14.60;69.52;101899.53;4943562;28;103970;-53
2022/11/06 11:23:19;;;;;;;73.15;68.85;;;;;;;14.58;69.61;101909.97;4937237;28;102368;-53
2022/11/06 11:25:49;;;;;;;72.03;67.73;;;;;;;14.59;69.57;101904.19;4947889;28;102110;-53